createdAt,value
2019-04-30T00:00:25.708Z,98167.00
2019-04-30T00:05:32.496Z,98162.00
2019-04-30T00:10:41.519Z,98166.00
2019-04-30T00:15:52.800Z,98161.00
2019-04-30T00:20:58.660Z,98166.00
2019-04-30T00:26:10.389Z,98156.00
2019-04-30T00:31:17.616Z,98154.00
2019-04-30T00:36:29.051Z,98144.00
2019-04-30T00:41:35.376Z,98144.00
2019-04-30T00:46:45.474Z,98144.00
2019-04-30T00:51:58.071Z,98148.00
2019-04-30T00:57:04.500Z,98152.00
2019-04-30T01:02:19.931Z,98152.00
2019-04-30T01:07:23.294Z,98156.00
2019-04-30T01:12:36.380Z,98155.00
2019-04-30T01:17:45.416Z,98154.00
2019-04-30T01:22:51.972Z,98158.00
2019-04-30T01:27:59.813Z,98156.00
2019-04-30T01:33:09.159Z,98146.00
2019-04-30T01:38:16.625Z,98147.00
2019-04-30T01:43:31.469Z,98136.00
2019-04-30T01:48:34.020Z,98141.00
2019-04-30T01:53:44.876Z,98131.00
2019-04-30T01:58:55.109Z,98138.00
2019-04-30T02:04:04.182Z,98139.00
2019-04-30T02:09:11.966Z,98138.00
2019-04-30T02:14:19.946Z,98144.00
2019-04-30T02:19:28.772Z,98140.00
2019-04-30T02:24:38.694Z,98129.00
2019-04-30T02:29:46.196Z,98140.00
2019-04-30T02:35:10.076Z,98137.00
2019-04-30T02:40:20.133Z,98133.00
2019-04-30T02:45:30.024Z,98137.00
2019-04-30T02:50:43.271Z,98140.00
2019-04-30T02:55:50.463Z,98154.00
2019-04-30T03:01:00.073Z,98163.00
2019-04-30T03:06:07.640Z,98158.00
2019-04-30T03:11:15.949Z,98165.00
2019-04-30T03:16:26.260Z,98179.00
2019-04-30T03:21:45.097Z,98187.00
2019-04-30T03:26:52.402Z,98179.00
2019-04-30T03:32:02.748Z,98185.00
2019-04-30T03:37:10.894Z,98179.00
2019-04-30T03:42:19.976Z,98179.00
2019-04-30T03:47:29.839Z,98185.00
2019-04-30T03:52:39.451Z,98173.00
2019-04-30T03:57:46.426Z,98172.00
2019-04-30T04:02:53.734Z,98179.00
2019-04-30T04:08:02.618Z,98167.00
2019-04-30T04:13:12.742Z,98174.00
2019-04-30T04:18:20.330Z,98168.00
2019-04-30T04:23:32.359Z,98180.00
2019-04-30T04:28:43.260Z,98186.00
2019-04-30T04:33:49.535Z,98191.00
2019-04-30T04:39:09.888Z,98190.00
2019-04-30T04:44:20.464Z,98197.00
2019-04-30T04:49:30.297Z,98199.00
2019-04-30T04:54:39.858Z,98201.00
2019-04-30T04:59:46.851Z,98207.00
2019-04-30T05:04:54.979Z,98213.00
2019-04-30T05:10:02.645Z,98210.00
2019-04-30T05:15:10.278Z,98208.00
2019-04-30T05:20:19.447Z,98209.00
2019-04-30T05:25:27.157Z,98204.00
2019-04-30T05:30:35.157Z,98214.00
2019-04-30T05:35:44.280Z,98217.00
2019-04-30T05:40:52.255Z,98211.00
2019-04-30T05:46:02.874Z,98216.00
2019-04-30T05:51:11.471Z,98209.00
2019-04-30T05:56:19.383Z,98212.00
2019-04-30T06:01:29.709Z,98209.00
2019-04-30T06:06:41.610Z,98207.00
2019-04-30T06:11:59.053Z,98200.00
2019-04-30T06:17:19.882Z,98198.00
2019-04-30T06:22:29.345Z,98199.00
2019-04-30T06:27:49.658Z,98208.00
2019-04-30T06:32:59.344Z,98218.00
2019-04-30T06:38:08.554Z,98219.00
2019-04-30T06:43:19.714Z,98220.00
2019-04-30T06:48:32.004Z,98229.00
2019-04-30T06:53:40.386Z,98220.00
2019-04-30T06:58:50.296Z,98223.00
2019-04-30T07:04:01.148Z,98237.00
2019-04-30T07:09:13.736Z,98232.00
2019-04-30T07:14:21.363Z,98223.00
2019-04-30T07:24:39.498Z,98223.00
2019-04-30T07:29:47.059Z,98233.00
2019-04-30T07:34:54.421Z,98249.00
2019-04-30T07:40:01.725Z,98246.00
2019-04-30T07:45:09.783Z,98244.00
2019-04-30T07:50:20.390Z,98237.00
2019-04-30T07:55:29.555Z,98241.00
2019-04-30T08:00:40.392Z,98250.00
2019-04-30T08:05:50.021Z,98254.00
2019-04-30T08:09:31.419Z,98227.00
2019-04-30T08:10:59.219Z,98271.00
2019-04-30T08:16:09.647Z,98270.00
2019-04-30T08:21:19.033Z,98261.00
2019-04-30T08:26:28.688Z,98263.00
2019-04-30T08:31:36.397Z,98272.00
2019-04-30T08:36:44.438Z,98259.00
2019-04-30T08:42:03.874Z,98254.00
2019-04-30T08:47:12.353Z,98254.00
2019-04-30T08:52:21.071Z,98253.00
2019-04-30T08:57:29.408Z,98257.00
2019-04-30T09:02:38.954Z,98259.00
2019-04-30T09:07:46.343Z,98257.00
2019-04-30T09:12:53.637Z,98252.00
2019-04-30T09:18:06.405Z,98254.00
2019-04-30T09:23:13.793Z,98257.00
2019-04-30T09:28:21.723Z,98260.00
2019-04-30T09:33:29.545Z,98255.00
2019-04-30T09:38:38.912Z,98250.00
2019-04-30T09:43:46.473Z,98258.00
2019-04-30T09:49:09.541Z,98261.00
2019-04-30T09:54:19.790Z,98257.00
2019-04-30T09:59:29.194Z,98250.00
2019-04-30T10:04:36.723Z,98254.00
2019-04-30T10:09:45.275Z,98261.00
2019-04-30T10:14:52.813Z,98262.00
2019-04-30T10:20:00.599Z,98261.00
2019-04-30T10:25:09.884Z,98263.00
2019-04-30T10:30:24.527Z,98262.00
2019-04-30T10:35:33.459Z,98255.00
2019-04-30T10:40:41.698Z,98254.00
2019-04-30T10:45:48.918Z,98248.00
2019-04-30T10:50:56.157Z,98255.00
2019-04-30T10:56:07.169Z,98250.00
2019-04-30T11:01:15.190Z,98255.00
2019-04-30T11:06:22.997Z,98244.00
2019-04-30T11:11:30.647Z,98263.00
2019-04-30T11:16:39.038Z,98254.00
2019-04-30T11:21:48.308Z,98261.00
2019-04-30T11:26:58.692Z,98251.00
2019-04-30T11:32:11.157Z,98252.00
2019-04-30T11:37:18.664Z,98231.00
2019-04-30T11:42:32.357Z,98239.00
2019-04-30T11:47:52.628Z,98230.00
2019-04-30T11:52:51.476Z,98233.00
2019-04-30T11:58:00.561Z,98239.00
2019-04-30T12:03:09.124Z,98224.00
2019-04-30T12:08:20.866Z,98236.00
2019-04-30T12:13:30.036Z,98225.00
2019-04-30T12:18:39.446Z,98219.00
2019-04-30T12:23:46.806Z,98218.00
2019-04-30T12:29:08.960Z,98220.00
2019-04-30T12:34:17.258Z,98214.00
2019-04-30T12:39:42.574Z,98212.00
2019-04-30T12:44:50.885Z,98209.00
2019-04-30T12:50:01.661Z,98209.00
2019-04-30T12:55:39.234Z,98218.00
2019-04-30T13:00:49.124Z,98224.00
2019-04-30T13:06:00.638Z,98214.00
2019-04-30T13:11:11.923Z,98203.00
2019-04-30T13:16:19.405Z,98204.00
2019-04-30T13:21:34.942Z,98199.00
2019-04-30T13:26:43.613Z,98214.00
2019-04-30T13:31:50.945Z,98201.00
2019-04-30T13:36:59.370Z,98185.00
2019-04-30T13:42:15.995Z,98180.00
2019-04-30T13:47:19.287Z,98179.00
2019-04-30T13:52:26.722Z,98181.00
2019-04-30T13:57:36.540Z,98179.00
2019-04-30T14:02:52.568Z,98174.00
2019-04-30T14:08:01.435Z,98165.00
2019-04-30T14:13:12.343Z,98166.00
2019-04-30T14:18:28.398Z,98168.00
2019-04-30T14:23:30.413Z,98163.00
2019-04-30T14:28:39.115Z,98160.00
2019-04-30T14:33:46.617Z,98166.00
2019-04-30T14:38:54.035Z,98152.00
2019-04-30T14:44:12.510Z,98156.00
2019-04-30T14:49:35.400Z,98154.00
2019-04-30T14:54:45.252Z,98156.00
2019-04-30T15:00:02.091Z,98160.00
2019-04-30T15:05:09.627Z,98156.00
2019-04-30T15:10:20.719Z,98156.00
2019-04-30T15:15:29.224Z,98151.00
2019-04-30T15:20:39.758Z,98154.00
2019-04-30T15:25:48.646Z,98146.00
2019-04-30T15:30:56.031Z,98143.00
2019-04-30T15:36:04.309Z,98146.00
2019-04-30T15:41:12.863Z,98139.00
2019-04-30T15:46:38.897Z,98141.00
2019-04-30T15:51:46.484Z,98138.00
2019-04-30T15:56:55.380Z,98144.00
2019-04-30T16:02:15.921Z,98145.00
2019-04-30T16:07:24.404Z,98146.00
2019-04-30T16:12:34.279Z,98150.00
2019-04-30T16:17:44.057Z,98141.00
2019-04-30T16:22:51.429Z,98142.00
2019-04-30T16:27:59.834Z,98137.00
2019-04-30T16:33:09.500Z,98127.00
2019-04-30T16:38:20.923Z,98137.00
2019-04-30T16:43:46.276Z,98137.00
2019-04-30T16:48:55.839Z,98126.00
2019-04-30T16:54:06.227Z,98121.00
2019-04-30T16:59:38.948Z,98127.00
2019-04-30T17:05:03.377Z,98125.00
2019-04-30T17:10:15.404Z,98127.00
2019-04-30T17:15:25.316Z,98129.00
2019-04-30T17:20:32.682Z,98126.00
2019-04-30T17:25:50.596Z,98122.00
2019-04-30T17:30:59.696Z,98129.00
2019-04-30T17:36:11.106Z,98128.00
2019-04-30T17:41:19.420Z,98122.00
2019-04-30T17:46:28.508Z,98118.00
2019-04-30T17:51:37.160Z,98120.00
2019-04-30T17:56:46.239Z,98123.00
2019-04-30T18:01:55.318Z,98116.00
2019-04-30T18:07:06.583Z,98122.00
2019-04-30T18:12:14.467Z,98116.00
2019-04-30T18:17:23.118Z,98127.00
2019-04-30T18:22:51.565Z,98125.00
2019-04-30T18:28:19.143Z,98124.00
2019-04-30T18:33:27.517Z,98131.00
2019-04-30T18:38:50.152Z,98131.00
2019-04-30T18:43:57.257Z,98135.00
2019-04-30T18:49:05.880Z,98127.00
2019-04-30T18:54:14.132Z,98138.00
2019-04-30T18:59:32.901Z,98126.00
2019-04-30T19:04:42.976Z,98136.00
2019-04-30T19:10:03.482Z,98137.00
2019-04-30T19:15:59.239Z,98127.00
2019-04-30T19:20:45.152Z,98135.00
2019-04-30T19:25:52.405Z,98140.00
2019-04-30T19:31:01.294Z,98142.00
2019-04-30T19:36:10.080Z,98145.00
2019-04-30T19:41:18.939Z,98142.00
2019-04-30T19:46:29.331Z,98140.00
2019-04-30T19:51:37.005Z,98144.00
2019-04-30T19:56:44.842Z,98131.00
2019-04-30T20:02:11.366Z,98139.00
2019-04-30T20:07:19.787Z,98128.00
2019-04-30T20:12:28.943Z,98140.00
2019-04-30T20:17:38.590Z,98140.00
2019-04-30T20:22:51.984Z,98138.00
2019-04-30T20:28:00.703Z,98127.00
2019-04-30T20:33:09.128Z,98140.00
2019-04-30T20:38:31.427Z,98145.00
2019-04-30T20:43:39.597Z,98135.00
2019-04-30T20:48:49.169Z,98137.00
2019-04-30T20:53:56.404Z,98126.00
2019-04-30T20:59:07.988Z,98123.00
2019-04-30T21:04:14.849Z,98119.00
2019-04-30T21:09:22.072Z,98115.00
2019-04-30T21:14:48.666Z,98112.00
2019-04-30T21:19:55.885Z,98108.00
2019-04-30T21:25:03.183Z,98118.00
2019-04-30T21:30:11.204Z,98110.00
2019-04-30T21:35:26.051Z,98113.00
2019-04-30T21:40:37.044Z,98109.00
2019-04-30T21:45:45.239Z,98112.00
2019-04-30T21:50:52.427Z,98103.00
2019-04-30T21:56:01.785Z,98102.00
2019-04-30T22:01:14.714Z,98095.00
2019-04-30T22:06:30.426Z,98098.00
2019-04-30T22:11:39.472Z,98089.00
2019-04-30T22:16:49.436Z,98092.00
2019-04-30T22:21:59.485Z,98095.00
2019-04-30T22:27:20.004Z,98096.00
2019-04-30T22:32:27.918Z,98089.00
2019-04-30T22:37:36.771Z,98093.00
2019-04-30T22:42:45.446Z,98083.00
2019-04-30T23:08:58.220Z,98075.00
2019-04-30T23:14:05.594Z,98067.00
2019-04-30T23:19:12.884Z,98056.00
2019-04-30T23:24:39.233Z,98064.00
2019-04-30T23:30:03.609Z,98065.00
2019-04-30T23:35:07.451Z,98057.00
2019-04-30T23:40:42.373Z,98051.00
2019-04-30T23:45:49.907Z,98036.00
2019-04-30T23:50:58.257Z,98034.00
2019-04-30T23:56:05.532Z,98041.00
